createdAt,value
2023-05-05T00:00:16.888Z,47.69
2023-05-05T00:01:16.196Z,47.68
2023-05-05T00:02:16.041Z,47.67
2023-05-05T00:03:17.223Z,47.66
2023-05-05T00:04:16.269Z,47.69
2023-05-05T00:05:16.217Z,47.68
2023-05-05T00:06:16.111Z,47.69
2023-05-05T00:07:16.236Z,47.68
2023-05-05T00:08:16.301Z,47.67
2023-05-05T00:09:16.240Z,47.70
2023-05-05T00:10:16.302Z,47.67
2023-05-05T00:11:16.397Z,47.68
2023-05-05T00:12:16.355Z,47.69
2023-05-05T00:13:16.551Z,47.68
2023-05-05T00:14:16.545Z,47.72
2023-05-05T00:15:16.612Z,47.69
2023-05-05T00:16:16.676Z,47.71
2023-05-05T00:17:16.746Z,47.71
2023-05-05T00:18:16.795Z,47.69
2023-05-05T00:19:16.762Z,47.69
2023-05-05T00:20:17.850Z,47.70
2023-05-05T00:21:16.864Z,47.70
2023-05-05T00:22:17.908Z,47.72
2023-05-05T00:23:16.877Z,47.72
2023-05-05T00:24:16.928Z,47.74
2023-05-05T00:25:18.033Z,47.70
2023-05-05T00:26:18.109Z,47.69
2023-05-05T00:27:17.077Z,47.71
2023-05-05T00:28:17.207Z,47.69
2023-05-05T00:29:17.203Z,47.72
2023-05-05T00:30:18.286Z,47.68
2023-05-05T00:31:18.348Z,47.71
2023-05-05T00:32:18.345Z,47.69
2023-05-05T00:33:17.390Z,47.69
2023-05-05T00:34:18.486Z,47.73
2023-05-05T00:35:17.483Z,47.69
2023-05-05T00:36:18.600Z,47.72
2023-05-05T00:37:17.654Z,47.70
2023-05-05T00:38:17.823Z,47.73
2023-05-05T00:39:17.734Z,47.71
2023-05-05T00:40:18.897Z,47.69
2023-05-05T00:41:17.951Z,47.72
2023-05-05T00:42:18.980Z,47.72
2023-05-05T00:43:18.125Z,47.73
2023-05-05T00:44:18.138Z,47.72
2023-05-05T00:45:18.132Z,47.72
2023-05-05T00:46:18.276Z,47.73
2023-05-05T00:47:18.229Z,47.73
2023-05-05T00:48:19.313Z,47.74
2023-05-05T00:49:18.418Z,47.73
2023-05-05T00:50:18.414Z,47.72
2023-05-05T00:51:19.587Z,47.72
2023-05-05T00:52:18.579Z,47.73
2023-05-05T00:53:19.720Z,47.74
2023-05-05T00:54:18.760Z,47.74
2023-05-05T00:55:18.782Z,47.74
2023-05-05T00:56:19.802Z,47.76
2023-05-05T00:57:18.834Z,47.73
2023-05-05T00:58:18.867Z,47.72
2023-05-05T00:59:18.933Z,47.72
2023-05-05T01:00:19.997Z,47.75
2023-05-05T01:01:19.105Z,47.73
2023-05-05T01:02:19.032Z,47.73
2023-05-05T01:03:20.145Z,47.73
2023-05-05T01:04:20.181Z,47.73
2023-05-05T01:05:19.191Z,47.74
2023-05-05T01:06:20.299Z,47.73
2023-05-05T01:07:19.269Z,47.72
2023-05-05T01:08:19.345Z,47.76
2023-05-05T01:09:19.328Z,47.75
2023-05-05T01:10:20.723Z,47.72
2023-05-05T01:11:20.254Z,47.74
2023-05-05T01:12:20.219Z,47.75
2023-05-05T01:13:20.220Z,47.71
2023-05-05T01:14:20.269Z,47.73
2023-05-05T01:15:19.209Z,47.73
2023-05-05T01:16:20.347Z,47.73
2023-05-05T01:17:19.216Z,47.75
2023-05-05T01:18:20.214Z,47.74
2023-05-05T01:19:20.239Z,47.76
2023-05-05T01:20:20.174Z,47.74
2023-05-05T01:21:19.241Z,47.74
2023-05-05T01:22:19.169Z,47.79
2023-05-05T01:23:19.164Z,47.74
2023-05-05T01:24:20.359Z,47.77
2023-05-05T01:25:19.261Z,47.76
2023-05-05T01:26:19.242Z,47.77
2023-05-05T01:27:19.232Z,47.78
2023-05-05T01:28:20.268Z,47.74
2023-05-05T01:29:19.198Z,47.75
2023-05-05T01:30:19.243Z,47.77
2023-05-05T01:31:19.222Z,47.76
2023-05-05T01:32:19.180Z,47.77
2023-05-05T01:33:20.175Z,47.76
2023-05-05T01:34:19.279Z,47.75
2023-05-05T01:35:20.181Z,47.73
2023-05-05T01:36:19.174Z,47.74
2023-05-05T01:37:20.213Z,47.75
2023-05-05T01:38:19.214Z,47.76
2023-05-05T01:39:20.172Z,47.79
2023-05-05T01:40:20.236Z,47.76
2023-05-05T01:41:19.195Z,47.76
2023-05-05T01:42:19.145Z,47.77
2023-05-05T01:43:20.144Z,47.77
2023-05-05T01:44:19.220Z,47.76
2023-05-05T01:45:19.224Z,47.78
2023-05-05T01:46:19.369Z,47.78
2023-05-05T01:47:19.253Z,47.77
2023-05-05T01:48:19.262Z,47.77
2023-05-05T01:49:19.234Z,47.78
2023-05-05T01:50:20.157Z,47.74
2023-05-05T01:51:20.202Z,47.75
2023-05-05T01:52:20.264Z,47.76
2023-05-05T01:53:19.203Z,47.77
2023-05-05T01:54:20.258Z,47.76
2023-05-05T01:55:19.225Z,47.76
2023-05-05T01:56:19.188Z,47.76
2023-05-05T01:57:19.169Z,47.76
2023-05-05T01:58:20.185Z,47.75
2023-05-05T01:59:20.286Z,47.76
2023-05-05T02:00:19.233Z,47.75
2023-05-05T02:01:19.186Z,47.75
2023-05-05T02:02:19.163Z,47.75
2023-05-05T02:03:19.189Z,47.76
2023-05-05T02:04:19.143Z,47.74
2023-05-05T02:05:20.127Z,47.75
2023-05-05T02:06:19.168Z,47.76
2023-05-05T02:07:20.200Z,47.80
2023-05-05T02:08:19.171Z,47.77
2023-05-05T02:09:20.256Z,47.80
2023-05-05T02:10:19.185Z,47.76
2023-05-05T02:11:19.183Z,47.77
2023-05-05T02:12:19.230Z,47.79
2023-05-05T02:13:19.235Z,47.78
2023-05-05T02:14:20.296Z,47.77
2023-05-05T02:15:19.181Z,47.80
2023-05-05T02:16:19.320Z,47.76
2023-05-05T02:17:19.242Z,47.76
2023-05-05T02:18:20.184Z,47.79
2023-05-05T02:19:19.276Z,47.80
2023-05-05T02:20:19.245Z,47.77
2023-05-05T02:21:19.273Z,47.75
2023-05-05T02:22:19.320Z,47.77
2023-05-05T02:23:19.284Z,47.77
2023-05-05T02:24:20.263Z,47.78
2023-05-05T02:25:19.338Z,47.77
2023-05-05T02:26:20.357Z,47.78
2023-05-05T02:27:19.289Z,47.77
2023-05-05T02:28:19.328Z,47.79
2023-05-05T02:29:19.329Z,47.79
2023-05-05T02:30:19.425Z,47.78
2023-05-05T02:31:19.452Z,47.76
2023-05-05T02:32:20.625Z,47.79
2023-05-05T02:33:19.408Z,47.80
2023-05-05T02:34:20.403Z,47.76
2023-05-05T02:35:20.456Z,47.80
2023-05-05T02:36:20.445Z,47.77
2023-05-05T02:37:20.461Z,47.75
2023-05-05T02:38:19.462Z,47.76
2023-05-05T02:39:20.501Z,47.76
2023-05-05T02:40:19.492Z,47.79
2023-05-05T02:41:19.523Z,47.78
2023-05-05T02:42:19.486Z,47.79
2023-05-05T02:43:20.639Z,47.78
2023-05-05T02:44:20.671Z,47.78
2023-05-05T02:45:19.693Z,47.77
2023-05-05T02:46:20.616Z,47.77
2023-05-05T02:47:19.652Z,47.79
2023-05-05T02:48:19.647Z,47.78
2023-05-05T02:49:19.663Z,47.77
2023-05-05T02:50:20.630Z,47.77
2023-05-05T02:51:19.741Z,47.77
2023-05-05T02:52:20.678Z,47.78
2023-05-05T02:53:19.595Z,47.76
2023-05-05T02:54:19.686Z,47.77
2023-05-05T02:55:19.702Z,47.77
2023-05-05T02:56:20.730Z,47.78
2023-05-05T02:57:19.703Z,47.79
2023-05-05T02:58:19.787Z,47.79
2023-05-05T02:59:19.754Z,47.76
2023-05-05T03:00:19.831Z,47.76
2023-05-05T03:01:19.814Z,47.79
2023-05-05T03:02:19.872Z,47.77
2023-05-05T03:03:19.862Z,47.79
2023-05-05T03:04:19.784Z,47.80
2023-05-05T03:05:19.759Z,47.80
2023-05-05T03:06:21.226Z,47.78
2023-05-05T03:07:19.802Z,47.83
2023-05-05T03:08:20.822Z,47.81
2023-05-05T03:09:20.784Z,47.80
2023-05-05T03:10:20.769Z,47.79
2023-05-05T03:11:20.776Z,47.79
2023-05-05T03:12:20.693Z,47.78
2023-05-05T03:13:20.761Z,47.81
2023-05-05T03:14:19.727Z,47.76
2023-05-05T03:15:20.767Z,47.79
2023-05-05T03:16:19.823Z,47.80
2023-05-05T03:17:19.738Z,47.75
2023-05-05T03:18:19.745Z,47.78
2023-05-05T03:19:19.747Z,47.79
2023-05-05T03:20:19.706Z,47.78
2023-05-05T03:21:19.773Z,47.77
2023-05-05T03:22:19.640Z,47.77
2023-05-05T03:23:20.651Z,47.76
2023-05-05T03:24:20.706Z,47.77
2023-05-05T03:25:20.755Z,47.80
2023-05-05T03:26:19.642Z,47.78
2023-05-05T03:27:19.661Z,47.76
2023-05-05T03:28:19.694Z,47.76
2023-05-05T03:29:19.651Z,47.80
2023-05-05T03:30:20.661Z,47.78
2023-05-05T03:31:19.666Z,47.78
2023-05-05T03:32:20.612Z,47.79
2023-05-05T03:33:19.644Z,47.81
2023-05-05T03:34:19.555Z,47.79
2023-05-05T03:35:20.696Z,47.80
2023-05-05T03:36:19.644Z,47.78
2023-05-05T03:37:20.544Z,47.78
2023-05-05T03:38:20.530Z,47.80
2023-05-05T03:39:19.526Z,47.78
2023-05-05T03:40:19.638Z,47.78
2023-05-05T03:41:19.497Z,47.77
2023-05-05T03:42:20.523Z,47.75
2023-05-05T03:43:19.534Z,47.79
2023-05-05T03:44:19.504Z,47.79
2023-05-05T03:45:19.565Z,47.79
2023-05-05T03:46:19.568Z,47.77
2023-05-05T03:47:20.461Z,47.77
2023-05-05T03:48:20.468Z,47.77
2023-05-05T03:49:20.536Z,47.80
2023-05-05T03:50:19.516Z,47.78
2023-05-05T03:51:20.467Z,47.75
2023-05-05T03:52:20.467Z,47.76
2023-05-05T03:53:19.445Z,47.75
2023-05-05T03:54:19.425Z,47.75
2023-05-05T03:55:20.392Z,47.81
2023-05-05T03:56:20.422Z,47.79
2023-05-05T03:57:19.424Z,47.82
2023-05-05T03:58:19.473Z,47.79
2023-05-05T03:59:19.459Z,47.77
2023-05-05T04:00:19.508Z,47.80
2023-05-05T04:01:19.514Z,47.81
2023-05-05T04:02:19.596Z,47.79
2023-05-05T04:03:19.709Z,47.80
2023-05-05T04:04:20.616Z,47.78
2023-05-05T04:05:19.647Z,47.77
2023-05-05T04:06:19.592Z,47.78
2023-05-05T04:07:19.618Z,47.80
2023-05-05T04:08:19.671Z,47.76
2023-05-05T04:09:19.626Z,47.76
2023-05-05T04:10:19.712Z,47.73
2023-05-05T04:11:20.660Z,47.75
2023-05-05T04:12:19.656Z,47.74
2023-05-05T04:13:19.744Z,47.77
2023-05-05T04:14:20.698Z,47.73
2023-05-05T04:15:19.738Z,47.74
2023-05-05T04:16:19.890Z,47.75
2023-05-05T04:17:19.841Z,47.75
2023-05-05T04:18:19.816Z,47.73
2023-05-05T04:19:19.891Z,47.76
2023-05-05T04:20:19.819Z,47.73
2023-05-05T04:21:19.882Z,47.74
2023-05-05T04:22:19.865Z,47.75
2023-05-05T04:23:19.916Z,47.74
2023-05-05T04:24:19.941Z,47.74
2023-05-05T04:25:19.920Z,47.69
2023-05-05T04:26:19.940Z,47.73
2023-05-05T04:27:20.963Z,47.72
2023-05-05T04:28:21.625Z,47.70
2023-05-05T04:29:19.944Z,47.69
2023-05-05T04:30:21.047Z,47.72
2023-05-05T04:31:20.342Z,47.75
2023-05-05T04:32:20.029Z,47.75
2023-05-05T04:33:20.020Z,47.72
2023-05-05T04:34:21.087Z,47.69
2023-05-05T04:35:20.101Z,47.74
2023-05-05T04:36:20.240Z,47.73
2023-05-05T04:37:20.101Z,47.71
2023-05-05T04:38:21.183Z,47.71
2023-05-05T04:39:20.189Z,47.72
2023-05-05T04:40:20.168Z,47.73
2023-05-05T04:41:21.257Z,47.75
2023-05-05T04:42:21.283Z,47.73
2023-05-05T04:43:20.278Z,47.75
2023-05-05T04:44:20.288Z,47.71
2023-05-05T04:45:20.380Z,47.73
2023-05-05T04:46:20.495Z,47.75
2023-05-05T04:47:20.326Z,47.71
2023-05-05T04:48:21.443Z,47.73
2023-05-05T04:49:20.471Z,47.73
2023-05-05T04:50:20.406Z,47.71
2023-05-05T04:51:21.430Z,47.71
2023-05-05T04:52:20.553Z,47.72
2023-05-05T04:53:20.529Z,47.72
2023-05-05T04:54:20.544Z,47.69
2023-05-05T04:55:20.578Z,47.72
2023-05-05T04:56:20.538Z,47.72
2023-05-05T04:57:21.621Z,47.72
2023-05-05T04:58:20.592Z,47.70
2023-05-05T04:59:21.616Z,47.69
2023-05-05T05:00:21.641Z,47.69
2023-05-05T05:01:21.740Z,47.70
2023-05-05T05:02:21.983Z,47.66
2023-05-05T05:03:20.837Z,47.66
2023-05-05T05:04:20.893Z,47.61
2023-05-05T05:05:21.810Z,47.62
2023-05-05T05:06:21.911Z,47.62
2023-05-05T05:07:20.910Z,47.59
2023-05-05T05:08:20.874Z,47.59
2023-05-05T05:09:20.914Z,47.59
2023-05-05T05:10:20.932Z,47.57
2023-05-05T05:11:20.999Z,47.55
2023-05-05T05:12:21.016Z,47.53
2023-05-05T05:13:21.081Z,47.53
2023-05-05T05:14:21.029Z,47.50
2023-05-05T05:15:21.010Z,47.48
2023-05-05T05:16:22.099Z,47.47
2023-05-05T05:17:21.014Z,47.45
2023-05-05T05:18:22.107Z,47.42
2023-05-05T05:19:21.080Z,47.42
2023-05-05T05:20:21.064Z,47.42
2023-05-05T05:21:21.056Z,47.35
2023-05-05T05:22:21.136Z,47.35
2023-05-05T05:23:21.203Z,47.31
2023-05-05T05:24:22.145Z,47.35
2023-05-05T05:25:21.105Z,47.33
2023-05-05T05:26:22.258Z,47.27
2023-05-05T05:27:21.116Z,47.25
2023-05-05T05:28:21.201Z,47.26
2023-05-05T05:29:21.170Z,47.26
2023-05-05T05:30:21.136Z,47.24
2023-05-05T05:31:21.313Z,47.23
2023-05-05T05:32:21.382Z,47.20
2023-05-05T05:33:21.399Z,47.20
2023-05-05T05:34:22.341Z,47.17
2023-05-05T05:35:21.478Z,47.16
2023-05-05T05:36:21.177Z,47.14
2023-05-05T05:37:22.184Z,47.15
2023-05-05T05:38:21.861Z,47.13
2023-05-05T05:39:22.228Z,47.12
2023-05-05T05:40:21.211Z,47.11
2023-05-05T05:41:22.564Z,47.11
2023-05-05T05:42:21.284Z,47.11
2023-05-05T05:43:21.639Z,47.14
2023-05-05T05:44:21.435Z,47.18
2023-05-05T05:45:21.763Z,47.21
2023-05-05T05:46:21.928Z,47.23
2023-05-05T05:47:21.613Z,47.22
2023-05-05T05:48:22.733Z,47.22
2023-05-05T05:49:22.351Z,47.30
2023-05-05T05:50:21.802Z,47.29
2023-05-05T05:51:21.863Z,47.34
2023-05-05T05:52:22.925Z,47.38
2023-05-05T05:53:22.012Z,47.46
2023-05-05T05:54:23.120Z,47.39
2023-05-05T05:55:23.092Z,47.37
2023-05-05T05:56:22.578Z,47.31
2023-05-05T05:57:22.250Z,47.20
2023-05-05T05:58:22.644Z,47.08
2023-05-05T05:59:22.305Z,46.89
2023-05-05T06:00:22.708Z,46.79
2023-05-05T06:01:22.976Z,46.82
2023-05-05T06:02:23.152Z,46.77
2023-05-05T06:03:23.882Z,46.78
2023-05-05T06:04:23.137Z,46.71
2023-05-05T06:05:22.946Z,46.68
2023-05-05T06:06:22.914Z,46.63
2023-05-05T06:07:24.288Z,46.54
2023-05-05T06:08:25.070Z,46.56
2023-05-05T06:09:22.773Z,46.44
2023-05-05T06:10:27.846Z,46.39
2023-05-05T06:11:23.914Z,46.36
2023-05-05T06:12:22.778Z,46.35
2023-05-05T06:13:24.281Z,46.18
2023-05-05T06:14:22.750Z,46.24
2023-05-05T06:15:23.784Z,46.24
2023-05-05T06:16:23.759Z,46.18
2023-05-05T06:17:23.983Z,46.18
2023-05-05T06:18:23.869Z,46.14
2023-05-05T06:19:22.854Z,46.04
2023-05-05T06:20:22.952Z,46.03
2023-05-05T06:21:23.001Z,46.04
2023-05-05T06:22:23.034Z,46.07
2023-05-05T06:23:24.155Z,46.09
2023-05-05T06:24:23.564Z,45.99
2023-05-05T06:25:23.274Z,46.01
2023-05-05T06:26:24.347Z,46.06
2023-05-05T06:27:24.454Z,46.10
2023-05-05T06:28:24.525Z,45.97
2023-05-05T06:29:23.549Z,45.97
2023-05-05T06:30:24.051Z,46.06
2023-05-05T06:31:24.989Z,46.06
2023-05-05T06:32:24.942Z,46.09
2023-05-05T06:33:23.752Z,46.11
2023-05-05T06:34:24.579Z,46.12
2023-05-05T06:35:23.580Z,46.12
2023-05-05T06:36:23.589Z,46.09
2023-05-05T06:37:23.529Z,46.05
2023-05-05T06:38:24.534Z,46.03
2023-05-05T06:39:23.565Z,46.03
2023-05-05T06:40:23.557Z,45.99
2023-05-05T06:41:23.544Z,45.94
2023-05-05T06:42:24.524Z,45.94
2023-05-05T06:43:23.558Z,45.92
2023-05-05T06:44:23.483Z,45.83
2023-05-05T06:45:23.526Z,45.81
2023-05-05T06:46:23.525Z,45.79
2023-05-05T06:47:23.548Z,45.74
2023-05-05T06:48:23.483Z,45.72
2023-05-05T06:49:23.508Z,45.67
2023-05-05T06:50:23.405Z,45.63
2023-05-05T06:51:24.480Z,45.65
2023-05-05T06:52:23.826Z,45.59
2023-05-05T06:53:24.414Z,45.57
2023-05-05T06:54:24.459Z,45.54
2023-05-05T06:55:23.437Z,45.51
2023-05-05T06:56:23.394Z,45.48
2023-05-05T06:57:24.836Z,45.45
2023-05-05T06:58:24.357Z,45.42
2023-05-05T06:59:24.602Z,45.36
2023-05-05T07:00:24.434Z,45.35
2023-05-05T07:01:23.574Z,45.36
2023-05-05T07:02:25.282Z,45.31
2023-05-05T07:03:23.432Z,45.32
2023-05-05T07:04:24.612Z,45.17
2023-05-05T07:05:23.351Z,45.21
2023-05-05T07:06:23.389Z,45.22
2023-05-05T07:07:23.416Z,45.20
2023-05-05T07:08:23.341Z,45.20
2023-05-05T07:09:23.329Z,45.14
2023-05-05T07:10:24.328Z,45.07
2023-05-05T07:11:24.418Z,45.08
2023-05-05T07:12:23.409Z,44.92
2023-05-05T07:13:23.318Z,44.96
2023-05-05T07:14:24.465Z,45.02
2023-05-05T07:15:27.522Z,44.96
2023-05-05T07:16:24.330Z,44.94
2023-05-05T07:17:23.465Z,44.95
2023-05-05T07:18:23.263Z,44.90
2023-05-05T07:19:23.537Z,44.88
2023-05-05T07:20:23.365Z,44.87
2023-05-05T07:21:23.289Z,44.86
2023-05-05T07:22:24.280Z,44.89
2023-05-05T07:23:23.290Z,44.87
2023-05-05T07:24:24.235Z,44.80
2023-05-05T07:25:23.279Z,44.71
2023-05-05T07:26:24.258Z,44.74
2023-05-05T07:27:24.337Z,44.72
2023-05-05T07:28:23.312Z,44.66
2023-05-05T07:29:23.332Z,44.72
2023-05-05T07:30:24.651Z,44.69
2023-05-05T07:31:24.623Z,44.66
2023-05-05T07:32:24.510Z,44.65
2023-05-05T07:33:24.500Z,44.64
2023-05-05T07:34:24.616Z,44.64
2023-05-05T07:35:24.669Z,44.60
2023-05-05T07:36:24.747Z,44.56
2023-05-05T07:37:24.806Z,44.52
2023-05-05T07:38:23.790Z,44.54
2023-05-05T07:39:25.837Z,44.53
2023-05-05T07:40:24.906Z,44.50
2023-05-05T07:41:23.918Z,44.43
2023-05-05T07:42:25.009Z,44.45
2023-05-05T07:43:24.130Z,44.42
2023-05-05T07:44:24.104Z,44.38
2023-05-05T07:45:24.171Z,44.39
2023-05-05T07:46:24.180Z,44.38
2023-05-05T07:47:25.468Z,44.26
2023-05-05T07:48:24.293Z,44.32
2023-05-05T07:49:25.170Z,44.13
2023-05-05T07:50:24.247Z,44.24
2023-05-05T07:51:24.307Z,43.77
2023-05-05T07:52:37.309Z,44.20
2023-05-05T07:53:25.768Z,44.25
2023-05-05T07:54:24.259Z,44.22
2023-05-05T07:55:25.282Z,44.22
2023-05-05T07:56:24.241Z,44.37
2023-05-05T07:57:25.277Z,44.41
2023-05-05T07:58:24.299Z,44.50
2023-05-05T07:59:24.469Z,44.46
2023-05-05T08:00:25.471Z,44.48
2023-05-05T08:01:24.378Z,44.52
2023-05-05T08:02:25.284Z,44.52
2023-05-05T08:03:25.666Z,44.52
2023-05-05T08:04:24.200Z,44.51
2023-05-05T08:05:24.350Z,44.55
2023-05-05T08:06:25.188Z,44.55
2023-05-05T08:07:24.210Z,44.61
2023-05-05T08:08:24.252Z,44.66
2023-05-05T08:09:25.222Z,44.75
2023-05-05T08:10:25.374Z,44.83
2023-05-05T08:11:25.434Z,44.89
2023-05-05T08:12:24.369Z,44.87
2023-05-05T08:13:25.440Z,45.05
2023-05-05T08:14:25.503Z,45.12
2023-05-05T08:15:24.572Z,45.33
2023-05-05T08:16:24.566Z,45.28
2023-05-05T08:17:25.632Z,45.30
2023-05-05T08:18:24.750Z,45.25
2023-05-05T08:19:29.369Z,45.29
2023-05-05T08:20:25.782Z,45.40
2023-05-05T08:21:25.802Z,45.41
2023-05-05T08:22:24.796Z,45.66
2023-05-05T08:23:24.710Z,45.60
2023-05-05T08:24:25.695Z,45.68
2023-05-05T08:25:25.735Z,45.96
2023-05-05T08:26:24.690Z,45.86
2023-05-05T08:27:25.708Z,45.85
2023-05-05T08:28:25.693Z,46.29
2023-05-05T08:29:25.734Z,46.22
2023-05-05T08:30:24.726Z,46.33
2023-05-05T08:31:24.672Z,46.32
2023-05-05T08:32:24.686Z,46.43
2023-05-05T08:33:24.686Z,46.75
2023-05-05T08:34:25.710Z,46.58
2023-05-05T08:35:24.792Z,46.69
2023-05-05T08:36:24.733Z,46.83
2023-05-05T08:37:24.794Z,47.00
2023-05-05T08:38:25.348Z,47.11
2023-05-05T08:39:25.949Z,47.15
2023-05-05T08:40:25.990Z,47.29
2023-05-05T08:41:26.075Z,47.09
2023-05-05T08:42:36.357Z,46.85
2023-05-05T08:43:26.263Z,46.81
2023-05-05T08:44:25.034Z,46.84
2023-05-05T08:45:25.034Z,46.37
2023-05-05T08:46:25.241Z,46.60
2023-05-05T08:47:25.210Z,46.52
2023-05-05T08:48:25.153Z,46.35
2023-05-05T08:49:26.033Z,45.63
2023-05-05T08:50:24.960Z,45.39
2023-05-05T08:51:25.030Z,44.87
2023-05-05T08:52:24.969Z,44.30
2023-05-05T08:53:25.098Z,44.31
2023-05-05T08:54:24.962Z,44.42
2023-05-05T08:55:24.913Z,44.39
2023-05-05T08:56:25.958Z,43.88
2023-05-05T08:57:26.035Z,44.09
2023-05-05T08:58:28.748Z,44.40
2023-05-05T08:59:24.881Z,44.48
2023-05-05T09:00:24.945Z,44.27
2023-05-05T09:01:25.968Z,44.31
2023-05-05T09:02:25.003Z,44.02
2023-05-05T09:03:25.196Z,44.10
2023-05-05T09:04:25.263Z,44.19
2023-05-05T09:05:25.051Z,44.25
2023-05-05T09:06:31.976Z,43.96
2023-05-05T09:07:24.845Z,44.05
2023-05-05T09:08:24.953Z,44.00
2023-05-05T09:09:24.828Z,43.95
2023-05-05T09:10:25.937Z,44.06
2023-05-05T09:11:25.826Z,43.74
2023-05-05T09:12:25.885Z,43.83
2023-05-05T09:13:25.818Z,44.07
2023-05-05T09:14:24.871Z,44.02
2023-05-05T09:15:24.792Z,44.01
2023-05-05T09:16:25.903Z,44.18
2023-05-05T09:17:24.838Z,44.04
2023-05-05T09:18:24.825Z,43.93
2023-05-05T09:19:24.856Z,44.05
2023-05-05T09:20:24.822Z,44.00
2023-05-05T09:21:25.830Z,43.76
2023-05-05T09:22:24.777Z,43.69
2023-05-05T09:23:24.785Z,43.88
2023-05-05T09:24:24.732Z,43.75
2023-05-05T09:25:24.754Z,43.85
2023-05-05T09:26:24.731Z,43.79
2023-05-05T09:27:25.796Z,43.52
2023-05-05T09:28:25.780Z,43.58
2023-05-05T09:29:24.711Z,43.64
2023-05-05T09:30:25.781Z,43.77
2023-05-05T09:31:24.748Z,43.60
2023-05-05T09:32:24.785Z,43.26
2023-05-05T09:33:25.758Z,43.48
2023-05-05T09:34:24.686Z,43.37
2023-05-05T09:35:24.698Z,43.45
2023-05-05T09:36:25.774Z,43.55
2023-05-05T09:37:24.745Z,43.57
2023-05-05T09:38:25.852Z,43.39
2023-05-05T09:39:24.641Z,43.55
2023-05-05T09:40:25.656Z,43.57
2023-05-05T09:41:24.636Z,43.62
2023-05-05T09:42:25.648Z,43.73
2023-05-05T09:43:24.733Z,43.91
2023-05-05T09:44:24.641Z,43.91
2023-05-05T09:45:24.656Z,43.97
2023-05-05T09:46:24.765Z,44.01
2023-05-05T09:47:29.834Z,44.06
2023-05-05T09:48:24.973Z,43.96
2023-05-05T09:49:24.875Z,44.01
2023-05-05T09:50:24.679Z,43.84
2023-05-05T09:51:25.735Z,43.77
2023-05-05T09:52:24.713Z,43.78
2023-05-05T09:53:25.769Z,43.63
2023-05-05T09:54:24.903Z,43.55
2023-05-05T09:55:24.824Z,43.48
2023-05-05T09:56:24.907Z,43.51
2023-05-05T09:57:24.956Z,43.58
2023-05-05T09:58:24.994Z,43.61
2023-05-05T09:59:25.058Z,43.57
2023-05-05T10:00:25.098Z,43.61
2023-05-05T10:01:25.156Z,43.58
2023-05-05T10:02:25.162Z,43.45
2023-05-05T10:03:25.277Z,43.54
2023-05-05T10:04:25.306Z,43.45
2023-05-05T10:05:26.269Z,43.58
2023-05-05T10:06:25.297Z,43.61
2023-05-05T10:07:25.374Z,43.63
2023-05-05T10:08:26.413Z,43.62
2023-05-05T10:09:25.359Z,43.69
2023-05-05T10:10:28.998Z,43.65
2023-05-05T10:11:25.432Z,43.64
2023-05-05T10:12:25.413Z,43.63
2023-05-05T10:13:25.353Z,43.57
2023-05-05T10:14:25.415Z,43.60
2023-05-05T10:15:25.353Z,43.56
2023-05-05T10:16:28.113Z,43.58
2023-05-05T10:17:25.395Z,43.59
2023-05-05T10:18:25.343Z,43.55
2023-05-05T10:19:26.346Z,43.57
2023-05-05T10:20:25.336Z,43.61
2023-05-05T10:21:25.387Z,43.63
2023-05-05T10:22:25.370Z,43.57
2023-05-05T10:23:26.282Z,43.56
2023-05-05T10:24:26.283Z,43.56
2023-05-05T10:25:26.281Z,43.60
2023-05-05T10:26:25.413Z,43.61
2023-05-05T10:27:25.264Z,43.62
2023-05-05T10:28:25.296Z,43.65
2023-05-05T10:29:25.315Z,43.66
2023-05-05T10:30:25.328Z,43.74
2023-05-05T10:31:26.706Z,43.72
2023-05-05T10:32:51.485Z,43.79
2023-05-05T10:33:30.883Z,43.81
2023-05-05T10:34:26.256Z,43.83
2023-05-05T10:35:26.216Z,43.79
2023-05-05T10:36:26.200Z,43.77
2023-05-05T10:37:25.208Z,43.84
2023-05-05T10:38:26.738Z,43.88
2023-05-05T10:39:25.248Z,43.85
2023-05-05T10:40:25.171Z,43.88
2023-05-05T10:41:26.315Z,43.83
2023-05-05T10:42:26.358Z,43.80
2023-05-05T10:43:25.226Z,43.63
2023-05-05T10:44:26.414Z,43.25
2023-05-05T10:45:25.260Z,43.34
2023-05-05T10:46:25.267Z,43.51
2023-05-05T10:47:26.202Z,43.45
2023-05-05T10:48:26.149Z,43.54
2023-05-05T10:49:26.105Z,43.58
2023-05-05T10:50:26.155Z,43.62
2023-05-05T10:51:38.369Z,43.65
2023-05-05T10:52:26.086Z,43.71
2023-05-05T10:53:25.123Z,43.74
2023-05-05T10:54:26.208Z,43.81
2023-05-05T10:55:25.064Z,43.86
2023-05-05T10:56:26.072Z,43.90
2023-05-05T10:57:25.047Z,43.89
2023-05-05T10:58:25.203Z,43.93
2023-05-05T10:59:25.050Z,43.95
2023-05-05T11:00:25.081Z,43.94
2023-05-05T11:01:25.160Z,43.97
2023-05-05T11:02:25.136Z,43.97
2023-05-05T11:03:25.130Z,43.99
2023-05-05T11:04:25.011Z,43.99
2023-05-05T11:05:25.030Z,43.97
2023-05-05T11:06:25.025Z,43.97
2023-05-05T11:07:25.024Z,44.00
2023-05-05T11:08:25.045Z,44.06
2023-05-05T11:09:25.053Z,44.04
2023-05-05T11:10:24.987Z,44.02
2023-05-05T11:11:25.030Z,44.05
2023-05-05T11:12:24.975Z,43.99
2023-05-05T11:13:25.032Z,44.02
2023-05-05T11:14:25.134Z,44.03
2023-05-05T11:15:26.033Z,44.11
2023-05-05T11:16:25.153Z,44.11
2023-05-05T11:17:26.102Z,44.14
2023-05-05T11:18:26.101Z,44.15
2023-05-05T11:19:26.072Z,44.19
2023-05-05T11:20:26.096Z,44.21
2023-05-05T11:21:26.190Z,44.17
2023-05-05T11:22:25.121Z,44.19
2023-05-05T11:23:26.149Z,44.16
2023-05-05T11:24:26.147Z,44.20
2023-05-05T11:25:26.186Z,44.21
2023-05-05T11:26:26.161Z,44.26
2023-05-05T11:27:26.142Z,44.32
2023-05-05T11:28:25.133Z,44.34
2023-05-05T11:29:26.190Z,44.34
2023-05-05T11:30:26.390Z,44.37
2023-05-05T11:31:25.204Z,44.40
2023-05-05T11:32:25.248Z,44.40
2023-05-05T11:33:25.194Z,44.40
2023-05-05T11:34:25.197Z,44.44
2023-05-05T11:35:26.404Z,44.52
2023-05-05T11:36:26.175Z,44.60
2023-05-05T11:37:25.199Z,44.61
2023-05-05T11:38:25.227Z,44.62
2023-05-05T11:39:25.228Z,44.57
2023-05-05T11:40:26.314Z,44.59
2023-05-05T11:41:25.236Z,44.56
2023-05-05T11:42:26.221Z,44.64
2023-05-05T11:43:26.307Z,44.66
2023-05-05T11:44:25.310Z,44.74
2023-05-05T11:45:25.378Z,44.83
2023-05-05T11:46:25.489Z,44.86
2023-05-05T11:47:25.390Z,44.89
2023-05-05T11:48:25.337Z,44.89
2023-05-05T11:49:25.413Z,44.96
2023-05-05T11:50:26.523Z,45.02
2023-05-05T11:51:25.426Z,45.01
2023-05-05T11:52:26.451Z,45.10
2023-05-05T11:53:25.494Z,45.15
2023-05-05T11:54:25.614Z,45.18
2023-05-05T11:55:25.715Z,45.24
2023-05-05T11:56:25.587Z,45.33
2023-05-05T11:57:25.584Z,45.36
2023-05-05T11:58:25.782Z,45.39
2023-05-05T11:59:25.738Z,45.42
2023-05-05T12:00:26.727Z,45.48
2023-05-05T12:01:25.861Z,45.43
2023-05-05T12:02:26.035Z,45.47
2023-05-05T12:03:25.979Z,45.49
2023-05-05T12:04:25.936Z,45.49
2023-05-05T12:05:25.967Z,45.57
2023-05-05T12:06:26.944Z,45.63
2023-05-05T12:07:26.984Z,45.84
2023-05-05T12:08:26.950Z,45.86
2023-05-05T12:09:26.982Z,45.88
2023-05-05T12:10:26.104Z,45.96
2023-05-05T12:11:26.064Z,45.94
2023-05-05T12:12:26.136Z,45.96
2023-05-05T12:13:26.219Z,45.98
2023-05-05T12:14:27.205Z,46.01
2023-05-05T12:15:27.211Z,45.97
2023-05-05T12:16:26.430Z,45.94
2023-05-05T12:17:26.365Z,45.96
2023-05-05T12:18:26.507Z,45.91
2023-05-05T12:19:27.447Z,45.90
2023-05-05T12:20:26.427Z,45.92
2023-05-05T12:21:26.515Z,45.96
2023-05-05T12:22:26.573Z,46.02
2023-05-05T12:23:26.630Z,45.97
2023-05-05T12:24:27.658Z,46.01
2023-05-05T12:25:27.742Z,46.08
2023-05-05T12:26:26.687Z,46.07
2023-05-05T12:27:26.800Z,46.05
2023-05-05T12:28:26.776Z,46.08
2023-05-05T12:29:26.905Z,46.08
2023-05-05T12:30:27.020Z,46.02
2023-05-05T12:31:26.956Z,45.95
2023-05-05T12:32:28.093Z,45.94
2023-05-05T12:33:27.052Z,45.89
2023-05-05T12:34:27.315Z,45.88
2023-05-05T12:35:27.287Z,45.84
2023-05-05T12:36:28.740Z,45.84
2023-05-05T12:37:27.205Z,45.84
2023-05-05T12:38:28.224Z,45.81
2023-05-05T12:39:28.286Z,45.77
2023-05-05T12:40:27.345Z,45.59
2023-05-05T12:41:27.190Z,45.38
2023-05-05T12:42:28.246Z,45.27
2023-05-05T12:43:28.277Z,45.31
2023-05-05T12:44:27.194Z,45.30
2023-05-05T12:45:28.155Z,45.26
2023-05-05T12:46:27.226Z,45.31
2023-05-05T12:47:27.165Z,45.30
2023-05-05T12:48:28.157Z,45.25
2023-05-05T12:49:27.198Z,45.28
2023-05-05T12:50:28.372Z,45.27
2023-05-05T12:51:28.148Z,45.28
2023-05-05T12:52:28.154Z,45.25